Time;durP1;ratioP1;P1;durP2;ratioP2;P2;SDS_P1;SDS_P2;PMS_P1;PMS_P2;Temp;Humidity;BMP_temperature;BMP_pressure;BME280_temperature;BME280_humidity;BME280_pressure;Samples;Min_cycle;Max_cycle;Signal;HPM_P1;HPM_P2
2024/03/05 00:01:38;;;;;;;8.98;7.57;;;11.20;78.20;;;;;;4762969;29;20131;-80
2024/03/05 00:04:05;;;;;;;10.80;8.40;;;11.20;78.20;;;;;;4782674;29;20035;-78
2024/03/05 00:06:32;;;;;;;11.45;8.40;;;11.20;78.20;;;;;;4768838;30;20032;-94
2024/03/05 00:08:58;;;;;;;10.05;7.88;;;11.20;78.20;;;;;;4777529;29;20038;-80
2024/03/05 00:11:25;;;;;;;10.13;8.13;;;11.20;78.20;;;;;;4775981;29;20043;-85
2024/03/05 00:13:54;;;;;;;10.73;8.38;;;11.20;78.20;;;;;;4787062;29;20043;-92
2024/03/05 00:16:19;;;;;;;9.45;7.78;;;11.10;78.20;;;;;;4788357;29;20058;-85
2024/03/05 00:18:48;;;;;;;10.65;7.97;;;11.10;78.20;;;;;;4774201;29;20127;-84
2024/03/05 00:21:15;;;;;;;10.50;8.02;;;11.10;78.20;;;;;;4787252;29;20133;-78
2024/03/05 00:23:41;;;;;;;11.45;8.77;;;11.10;78.20;;;;;;4784778;29;20031;-80
2024/03/05 00:26:08;;;;;;;9.60;7.93;;;11.00;78.20;;;;;;4779308;29;20031;-78
2024/03/05 00:28:34;;;;;;;11.00;8.15;;;11.00;78.20;;;;;;4788417;29;20428;-78
2024/03/05 00:31:00;;;;;;;10.10;7.97;;;11.00;78.20;;;;;;4800109;29;20038;-78
2024/03/05 00:33:26;;;;;;;9.60;7.35;;;11.00;78.30;;;;;;4773652;29;20478;-77
2024/03/05 00:35:53;;;;;;;10.85;8.48;;;10.90;78.20;;;;;;4772641;29;20381;-78
2024/03/05 00:38:18;;;;;;;12.02;8.35;;;10.90;78.20;;;;;;4764991;29;20030;-79
2024/03/05 00:40:44;;;;;;;9.95;8.02;;;10.90;78.20;;;;;;4765036;29;20049;-80
2024/03/05 00:43:11;;;;;;;10.23;8.35;;;10.90;78.20;;;;;;4783606;29;20116;-80
2024/03/05 00:45:36;;;;;;;10.38;7.93;;;10.90;78.20;;;;;;4768931;29;20033;-80
2024/03/05 00:48:03;;;;;;;10.43;7.85;;;10.80;78.10;;;;;;4798568;29;20125;-79
2024/03/05 00:50:29;;;;;;;11.57;8.15;;;10.80;78.20;;;;;;4776681;29;20388;-93
2024/03/05 00:52:54;;;;;;;11.98;8.43;;;10.80;78.20;;;;;;4771403;29;20053;-92
2024/03/05 00:55:21;;;;;;;9.95;8.23;;;10.80;78.20;;;;;;4780497;29;20031;-78
2024/03/05 00:57:46;;;;;;;10.80;8.05;;;10.80;78.20;;;;;;4763896;29;20084;-93
2024/03/05 01:00:19;;;;;;;9.82;7.57;;;10.70;78.20;;;;;;4799324;29;20034;-92
2024/03/05 01:02:45;;;;;;;10.77;7.88;;;10.70;78.20;;;;;;4784837;29;20088;-92
2024/03/05 01:05:11;;;;;;;8.82;7.25;;;10.70;78.20;;;;;;4769845;29;20027;-78
2024/03/05 01:07:40;;;;;;;10.07;7.82;;;10.70;78.30;;;;;;4781968;30;20112;-85
2024/03/05 01:10:06;;;;;;;9.98;7.47;;;10.70;78.30;;;;;;4765572;29;20063;-78
2024/03/05 01:12:32;;;;;;;10.68;8.05;;;10.70;78.30;;;;;;4771931;29;20037;-93
2024/03/05 01:14:58;;;;;;;11.20;8.68;;;10.70;78.30;;;;;;4781726;29;20035;-92
2024/03/05 01:17:26;;;;;;;10.85;8.05;;;10.70;78.30;;;;;;4791531;29;20042;-92
2024/03/05 01:19:53;;;;;;;10.65;8.05;;;10.70;78.30;;;;;;4793198;29;20616;-92
2024/03/05 01:22:19;;;;;;;9.95;8.15;;;10.70;78.30;;;;;;4788461;29;20515;-79
2024/03/05 01:24:45;;;;;;;9.48;7.55;;;10.60;78.30;;;;;;4788111;29;20488;-80
2024/03/05 01:27:14;;;;;;;11.02;8.27;;;10.60;78.30;;;;;;4770069;29;20054;-78
2024/03/05 01:29:41;;;;;;;10.27;8.73;;;10.60;78.30;;;;;;4773185;29;20037;-84
2024/03/05 01:32:07;;;;;;;10.55;8.65;;;10.60;78.30;;;;;;4771499;29;20027;-78
2024/03/05 01:34:37;;;;;;;10.52;8.15;;;10.60;78.40;;;;;;4788837;29;20034;-84
2024/03/05 01:37:03;;;;;;;11.40;8.60;;;10.60;78.40;;;;;;4785904;29;20027;-85
2024/03/05 01:39:30;;;;;;;10.73;8.60;;;10.60;78.40;;;;;;4769061;29;20039;-78
2024/03/05 01:41:57;;;;;;;11.40;8.05;;;10.60;78.40;;;;;;4787676;29;20050;-80
2024/03/05 01:44:24;;;;;;;11.15;8.40;;;10.60;78.50;;;;;;4790979;29;20124;-93
2024/03/05 01:46:54;;;;;;;11.32;8.48;;;10.50;78.40;;;;;;4786430;29;20161;-80
2024/03/05 01:49:21;;;;;;;10.23;8.15;;;10.60;78.50;;;;;;4767421;29;20031;-91
2024/03/05 01:51:48;;;;;;;10.82;8.65;;;10.50;78.50;;;;;;4773955;29;20046;-87
2024/03/05 01:54:16;;;;;;;11.75;8.73;;;10.50;78.50;;;;;;4798672;29;20034;-85
2024/03/05 01:56:47;;;;;;;12.30;8.98;;;10.50;78.50;;;;;;4772314;29;20065;-80
2024/03/05 01:59:14;;;;;;;11.15;8.57;;;10.50;78.50;;;;;;4803567;29;20043;-85
2024/03/05 02:01:43;;;;;;;10.93;7.95;;;10.50;78.50;;;;;;4778900;29;20110;-85
2024/03/05 02:04:09;;;;;;;9.80;7.82;;;10.50;78.50;;;;;;4787687;29;20027;-78
2024/03/05 02:06:36;;;;;;;11.05;8.57;;;10.50;78.60;;;;;;4788992;29;20491;-85
2024/03/05 02:09:03;;;;;;;11.60;8.93;;;10.50;78.60;;;;;;4785165;29;20035;-80
2024/03/05 02:11:31;;;;;;;10.27;8.43;;;10.50;78.60;;;;;;4765360;29;20032;-91
2024/03/05 02:13:58;;;;;;;13.25;9.75;;;10.50;78.60;;;;;;4788118;29;20030;-80
2024/03/05 02:16:24;;;;;;;11.10;8.57;;;10.50;78.60;;;;;;4789736;29;20469;-85
2024/03/05 02:18:52;;;;;;;11.65;8.65;;;10.50;78.70;;;;;;4801913;29;20102;-93
2024/03/05 02:21:24;;;;;;;12.07;8.90;;;10.50;78.70;;;;;;4789316;29;20035;-92
2024/03/05 02:23:49;;;;;;;11.68;8.35;;;10.50;78.70;;;;;;4769440;29;20129;-85
2024/03/05 02:26:19;;;;;;;11.50;8.68;;;10.40;78.70;;;;;;4789333;29;20110;-85
2024/03/05 02:28:48;;;;;;;12.25;8.60;;;10.50;78.80;;;;;;4800668;29;20091;-85
2024/03/05 02:31:15;;;;;;;11.30;8.25;;;10.40;78.80;;;;;;4784170;29;20121;-85
2024/03/05 02:33:42;;;;;;;11.65;9.32;;;10.40;78.80;;;;;;4781237;29;20084;-78
2024/03/05 02:36:09;;;;;;;12.07;9.00;;;10.40;78.80;;;;;;4777691;29;20030;-91
2024/03/05 02:38:35;;;;;;;11.35;8.40;;;10.40;78.80;;;;;;4810753;29;20035;-81
2024/03/05 02:41:01;;;;;;;11.63;8.65;;;10.40;78.80;;;;;;4778721;29;20091;-78
2024/03/05 02:43:27;;;;;;;12.30;9.43;;;10.40;78.80;;;;;;4787332;29;20083;-78
2024/03/05 02:45:53;;;;;;;12.13;8.98;;;10.40;78.90;;;;;;4785356;29;20035;-79
2024/03/05 02:48:18;;;;;;;12.25;8.98;;;10.40;78.80;;;;;;4774357;29;20043;-78
2024/03/05 02:50:44;;;;;;;11.65;9.13;;;10.40;78.90;;;;;;4771975;29;20066;-85
2024/03/05 02:53:10;;;;;;;11.52;8.85;;;10.40;78.90;;;;;;4774946;29;20034;-80
2024/03/05 02:55:38;;;;;;;11.60;8.70;;;10.40;78.90;;;;;;4807070;29;20392;-78
2024/03/05 02:58:10;;;;;;;11.25;8.90;;;10.40;78.90;;;;;;4802790;29;20454;-78
2024/03/05 03:00:39;;;;;;;11.85;8.48;;;10.40;79.00;;;;;;4780359;29;20031;-86
2024/03/05 03:03:20;;;;;;;11.93;9.30;;;10.40;79.00;;;;;;5091118;27;20460;-92
2024/03/05 03:05:46;;;;;;;11.80;9.00;;;10.40;79.00;;;;;;5042990;28;20029;-85
2024/03/05 03:08:12;;;;;;;13.85;10.02;;;10.40;79.00;;;;;;5071813;28;20071;-80
2024/03/05 03:10:38;;;;;;;12.80;10.02;;;10.40;79.00;;;;;;5048392;28;20068;-79
2024/03/05 03:13:05;;;;;;;12.55;9.20;;;10.40;79.00;;;;;;5043199;28;20094;-94
2024/03/05 03:15:32;;;;;;;11.57;8.93;;;10.40;79.00;;;;;;5057395;28;20025;-79
2024/03/05 03:17:58;;;;;;;12.02;8.98;;;10.40;79.00;;;;;;5061194;28;20029;-78
2024/03/05 03:20:23;;;;;;;14.90;10.30;;;10.40;79.00;;;;;;5071183;28;20044;-79
2024/03/05 03:22:49;;;;;;;12.38;9.20;;;10.40;79.00;;;;;;5045174;28;20123;-80
2024/03/05 03:25:15;;;;;;;12.57;9.60;;;10.40;79.00;;;;;;5049477;28;20174;-79
2024/03/05 03:27:41;;;;;;;11.90;8.45;;;10.50;79.10;;;;;;5054138;28;20078;-81
2024/03/05 03:30:07;;;;;;;11.40;8.93;;;10.40;79.00;;;;;;5084317;28;20220;-79
2024/03/05 03:32:34;;;;;;;13.25;9.40;;;10.40;79.00;;;;;;5058862;28;20112;-80
2024/03/05 03:35:03;;;;;;;12.57;9.85;;;10.40;79.00;;;;;;5043985;28;20083;-80
2024/03/05 03:37:30;;;;;;;12.18;9.52;;;10.40;79.10;;;;;;5062137;28;20028;-85
2024/03/05 03:39:55;;;;;;;12.45;9.30;;;10.40;79.10;;;;;;5058700;28;20048;-93
2024/03/05 03:42:25;;;;;;;12.85;9.30;;;10.50;79.10;;;;;;5049886;28;20033;-80
2024/03/05 03:44:51;;;;;;;12.38;9.65;;;10.50;79.10;;;;;;5054474;28;20048;-92
2024/03/05 03:47:17;;;;;;;12.65;9.90;;;10.40;79.10;;;;;;5037821;28;20056;-80
2024/03/05 03:49:49;;;;;;;12.95;10.23;;;10.50;79.10;;;;;;5059927;28;20064;-92
2024/03/05 03:52:15;;;;;;;12.18;9.70;;;10.50;79.20;;;;;;5048769;28;20033;-85
2024/03/05 03:54:41;;;;;;;13.07;10.10;;;10.40;79.10;;;;;;5063628;23;20056;-80
2024/03/05 03:57:13;;;;;;;12.43;9.52;;;10.50;79.20;;;;;;5058412;28;20038;-85
2024/03/05 03:59:39;;;;;;;12.82;9.73;;;10.50;79.20;;;;;;5040584;28;20516;-94
2024/03/05 04:02:05;;;;;;;12.48;9.43;;;10.40;79.80;;;;;;5028592;28;20061;-93
2024/03/05 04:04:31;;;;;;;13.60;10.20;;;10.50;79.20;;;;;;5043028;28;20099;-93
2024/03/05 04:06:57;;;;;;;13.32;10.23;;;10.40;79.80;;;;;;5060947;28;20370;-85
2024/03/05 04:09:23;;;;;;;12.57;9.40;;;10.50;79.20;;;;;;5027808;28;20032;-79
2024/03/05 04:11:48;;;;;;;13.60;10.13;;;10.40;79.10;;;;;;5025034;28;20496;-79
2024/03/05 04:14:15;;;;;;;13.55;9.32;;;10.50;79.20;;;;;;5031504;28;20041;-80
2024/03/05 04:16:42;;;;;;;13.18;9.93;;;10.50;79.20;;;;;;5026216;28;20060;-80
2024/03/05 04:19:08;;;;;;;13.25;9.75;;;10.40;79.10;;;;;;5010273;28;20073;-80
2024/03/05 04:21:45;;;;;;;13.65;10.38;;;10.40;79.20;;;;;;5010739;28;20477;-86
2024/03/05 04:24:13;;;;;;;12.55;10.00;;;10.50;79.20;;;;;;5023115;28;20036;-79
2024/03/05 04:26:42;;;;;;;13.50;9.82;;;10.50;79.90;;;;;;5008600;28;20512;-79
2024/03/05 04:29:15;;;;;;;14.90;10.27;;;10.50;79.20;;;;;;5024954;28;20053;-85
2024/03/05 04:31:43;;;;;;;12.05;10.02;;;10.50;79.20;;;;;;5043181;28;20402;-78
2024/03/05 04:34:10;;;;;;;13.23;10.13;;;10.50;79.20;;;;;;5041629;28;20026;-80
2024/03/05 04:36:39;;;;;;;13.90;10.13;;;10.40;79.20;;;;;;5029305;28;20041;-80
2024/03/05 04:39:06;;;;;;;13.40;9.88;;;10.40;79.20;;;;;;5009559;28;20025;-80
2024/03/05 04:41:32;;;;;;;13.85;9.98;;;10.40;79.30;;;;;;5024813;28;20202;-85
2024/03/05 04:43:58;;;;;;;12.88;9.82;;;10.50;79.40;;;;;;5012185;28;20441;-85
2024/03/05 04:46:24;;;;;;;14.25;10.38;;;10.50;79.30;;;;;;5009067;28;20358;-85
2024/03/05 04:48:50;;;;;;;13.63;10.20;;;10.50;79.40;;;;;;5010801;28;20092;-85
2024/03/05 04:51:16;;;;;;;14.10;10.68;;;10.50;79.40;;;;;;5003242;28;20477;-78
2024/03/05 04:53:42;;;;;;;15.05;10.60;;;10.50;79.40;;;;;;4992019;28;20112;-78
2024/03/05 04:56:08;;;;;;;14.55;10.80;;;10.50;79.40;;;;;;5010547;28;20059;-85
2024/03/05 04:58:35;;;;;;;13.30;10.18;;;10.40;79.40;;;;;;5012924;28;20032;-80
2024/03/05 05:01:01;;;;;;;13.48;10.20;;;10.50;79.40;;;;;;5025618;28;20022;-80
2024/03/05 05:03:27;;;;;;;13.98;10.55;;;10.50;79.40;;;;;;5010746;28;20030;-79
2024/03/05 05:05:55;;;;;;;13.52;10.18;;;10.50;79.40;;;;;;4995198;28;20519;-85
2024/03/05 05:08:21;;;;;;;13.82;10.20;;;10.50;79.40;;;;;;5044266;28;20544;-79
2024/03/05 05:10:47;;;;;;;14.32;10.27;;;10.50;79.40;;;;;;4993953;28;20496;-79
2024/03/05 05:13:13;;;;;;;15.25;10.68;;;10.50;79.40;;;;;;5011238;28;20037;-79
2024/03/05 05:15:39;;;;;;;14.65;10.98;;;10.50;79.40;;;;;;5014825;28;20511;-79
2024/03/05 05:18:05;;;;;;;14.68;10.70;;;10.50;79.40;;;;;;5010719;28;20077;-92
2024/03/05 05:20:31;;;;;;;14.23;10.52;;;10.50;79.40;;;;;;5026759;28;20389;-85
2024/03/05 05:22:57;;;;;;;15.52;10.68;;;10.50;79.40;;;;;;5011769;28;20034;-85
2024/03/05 05:25:23;;;;;;;15.30;10.73;;;10.50;80.00;;;;;;5007608;28;20026;-86
2024/03/05 05:27:50;;;;;;;15.43;10.80;;;10.50;79.40;;;;;;5025329;28;20026;-88
2024/03/05 05:30:20;;;;;;;13.50;10.10;;;10.50;79.40;;;;;;5011168;28;20026;-90
2024/03/05 05:32:49;;;;;;;15.27;10.95;;;10.50;79.50;;;;;;5009440;28;20492;-89
2024/03/05 05:35:16;;;;;;;12.93;10.30;;;10.50;79.50;;;;;;5009679;28;20389;-87
2024/03/05 05:37:44;;;;;;;14.75;10.68;;;10.50;79.50;;;;;;5028327;28;20121;-80
2024/03/05 05:40:16;;;;;;;17.25;10.85;;;10.50;79.50;;;;;;5043397;28;20030;-84
2024/03/05 05:42:47;;;;;;;13.73;10.13;;;10.50;79.50;;;;;;5018314;28;20594;-94
2024/03/05 05:45:12;;;;;;;14.70;11.25;;;10.50;79.50;;;;;;4998581;28;20393;-95
2024/03/05 05:47:50;;;;;;;15.00;10.57;;;10.50;79.40;;;;;;5046448;28;20102;-94
2024/03/05 05:50:18;;;;;;;14.50;9.95;;;10.50;79.50;;;;;;4997505;28;20455;-79
2024/03/05 05:52:48;;;;;;;16.65;11.15;;;10.50;79.50;;;;;;5021385;28;20022;-96
2024/03/05 05:55:19;;;;;;;17.25;11.35;;;10.50;79.50;;;;;;5039931;28;20049;-94
2024/03/05 05:57:47;;;;;;;14.80;9.90;;;10.50;79.50;;;;;;5028134;28;20116;-95
2024/03/05 06:00:23;;;;;;;17.08;11.60;;;10.50;79.50;;;;;;5002529;28;20044;-86
2024/03/05 06:02:51;;;;;;;17.70;11.80;;;10.60;79.60;;;;;;5039529;28;20034;-91
2024/03/05 06:05:17;;;;;;;14.82;11.73;;;10.50;79.50;;;;;;5022228;28;20033;-79
2024/03/05 06:07:43;;;;;;;15.63;11.57;;;10.50;79.40;;;;;;5013819;28;20026;-87
2024/03/05 06:10:13;;;;;;;14.93;10.50;;;10.50;79.50;;;;;;5026813;28;20109;-94
2024/03/05 06:12:40;;;;;;;16.08;10.95;;;10.50;79.50;;;;;;5045237;28;20116;-79
2024/03/05 06:15:08;;;;;;;15.52;11.52;;;10.60;79.60;;;;;;5020858;28;20117;-79
2024/03/05 06:17:34;;;;;;;14.48;10.18;;;10.50;79.50;;;;;;5004085;28;20030;-93
2024/03/05 06:19:59;;;;;;;15.82;11.13;;;10.60;79.60;;;;;;5028355;28;20034;-79
2024/03/05 06:22:25;;;;;;;17.55;11.75;;;10.60;79.60;;;;;;5029998;28;20528;-92
2024/03/05 06:24:51;;;;;;;16.77;12.00;;;10.60;79.60;;;;;;4994735;28;20045;-90
2024/03/05 06:27:17;;;;;;;15.57;10.75;;;10.60;79.60;;;;;;5025606;28;20036;-80
2024/03/05 06:29:44;;;;;;;16.00;11.48;;;10.60;79.70;;;;;;5039585;28;20026;-80
2024/03/05 06:32:10;;;;;;;16.55;11.43;;;10.60;79.60;;;;;;5024085;28;20113;-91
2024/03/05 06:34:36;;;;;;;16.92;11.20;;;10.60;79.60;;;;;;5019623;28;20124;-92
2024/03/05 06:37:01;;;;;;;16.00;11.05;;;10.50;79.60;;;;;;5013591;28;20021;-79
2024/03/05 06:39:29;;;;;;;15.90;11.35;;;10.50;80.30;;;;;;5009574;28;20061;-79
2024/03/05 06:41:59;;;;;;;14.40;10.23;;;10.60;79.70;;;;;;5003507;28;20029;-86
2024/03/05 06:44:25;;;;;;;17.80;11.63;;;10.50;79.70;;;;;;5041593;28;20025;-86
2024/03/05 06:46:53;;;;;;;16.92;11.20;;;10.50;79.70;;;;;;5027984;28;20519;-86
2024/03/05 06:49:27;;;;;;;16.20;10.75;;;10.50;79.70;;;;;;5005750;28;20023;-86
2024/03/05 06:56:39;;;;;;;14.48;10.40;;;10.50;79.70;;;;;;5042289;28;20053;-81
2024/03/05 06:57:26;;;;;;;16.00;10.77;;;10.50;79.70;;;;;;5024026;28;20503;-86
2024/03/05 06:59:52;;;;;;;15.07;11.10;;;10.50;79.70;;;;;;5033959;28;20022;-88
2024/03/05 07:02:18;;;;;;;15.27;11.10;;;10.50;79.70;;;;;;5024785;28;20037;-79
2024/03/05 07:04:45;;;;;;;14.15;10.32;;;10.50;79.80;;;;;;5010166;28;20287;-80
2024/03/05 07:07:11;;;;;;;16.42;11.35;;;10.50;79.80;;;;;;5030126;28;20041;-93
2024/03/05 07:09:37;;;;;;;15.35;10.85;;;10.60;79.80;;;;;;5018488;28;20116;-94
2024/03/05 07:12:07;;;;;;;16.33;10.75;;;10.50;79.70;;;;;;5013356;28;20112;-86
2024/03/05 07:14:32;;;;;;;17.13;11.25;;;10.50;79.70;;;;;;5030079;28;20033;-86
2024/03/05 07:16:58;;;;;;;16.60;11.40;;;10.50;79.80;;;;;;4995823;28;20230;-86
2024/03/05 07:19:26;;;;;;;17.42;11.35;;;10.50;79.80;;;;;;5025707;28;20056;-80
2024/03/05 07:21:52;;;;;;;14.60;10.80;;;10.60;79.80;;;;;;5007823;28;20076;-79
2024/03/05 07:24:18;;;;;;;15.95;11.38;;;10.60;79.80;;;;;;5007871;28;20502;-79
2024/03/05 07:26:44;;;;;;;15.57;10.82;;;10.60;79.80;;;;;;5012958;28;20172;-80
2024/03/05 07:29:11;;;;;;;16.58;10.88;;;10.60;79.80;;;;;;5040722;28;20068;-80
2024/03/05 07:31:37;;;;;;;16.98;11.27;;;10.60;79.80;;;;;;4994057;28;20064;-79
2024/03/05 07:34:03;;;;;;;15.73;10.60;;;10.60;79.80;;;;;;5029155;28;20053;-85
2024/03/05 07:36:28;;;;;;;15.65;10.20;;;10.60;79.90;;;;;;5042847;28;20029;-85
2024/03/05 07:38:54;;;;;;;16.40;11.38;;;10.60;80.50;;;;;;5028772;28;20167;-86
2024/03/05 07:41:20;;;;;;;16.77;11.07;;;10.60;79.90;;;;;;5021324;28;20041;-79
2024/03/05 07:43:49;;;;;;;15.35;10.57;;;10.60;79.90;;;;;;5021273;28;20763;-93
2024/03/05 07:46:17;;;;;;;16.65;10.98;;;10.60;79.90;;;;;;5010406;28;20033;-79
2024/03/05 07:48:43;;;;;;;17.58;11.20;;;10.60;79.90;;;;;;5024207;28;20464;-92
2024/03/05 07:51:09;;;;;;;15.52;10.73;;;10.60;79.90;;;;;;5009086;28;20121;-89
2024/03/05 07:53:35;;;;;;;17.85;11.70;;;10.60;79.90;;;;;;5048588;28;20030;-80
2024/03/05 07:56:01;;;;;;;15.68;10.25;;;10.60;79.90;;;;;;5001856;28;20548;-80
2024/03/05 07:58:26;;;;;;;16.92;11.35;;;10.60;79.80;;;;;;5020703;28;20025;-79
2024/03/05 08:00:52;;;;;;;16.92;11.13;;;10.60;79.80;;;;;;5014895;28;20071;-80
2024/03/05 08:03:18;;;;;;;16.55;11.10;;;10.60;79.90;;;;;;5030694;28;20377;-80
2024/03/05 08:05:45;;;;;;;16.42;10.98;;;10.70;79.90;;;;;;5024040;28;20092;-96
2024/03/05 08:08:11;;;;;;;17.92;12.00;;;10.70;79.90;;;;;;5000119;28;20022;-80
2024/03/05 08:10:37;;;;;;;15.73;10.77;;;10.70;79.90;;;;;;5015466;28;20028;-80
2024/03/05 08:13:02;;;;;;;17.95;10.77;;;10.70;79.90;;;;;;5013777;28;20371;-80
2024/03/05 08:15:28;;;;;;;18.10;12.25;;;10.70;79.90;;;;;;5047458;28;20026;-93
2024/03/05 08:17:56;;;;;;;18.75;11.85;;;10.70;79.90;;;;;;5009050;28;20022;-85
2024/03/05 08:20:26;;;;;;;15.77;11.55;;;10.70;79.90;;;;;;5027875;28;20107;-91
2024/03/05 08:22:53;;;;;;;18.77;11.55;;;10.70;79.90;;;;;;5046714;28;20033;-95
2024/03/05 08:25:19;;;;;;;19.95;12.90;;;10.70;79.90;;;;;;5030518;28;20053;-79
2024/03/05 08:27:47;;;;;;;19.33;12.57;;;10.80;79.90;;;;;;5028568;28;20010;-94
2024/03/05 08:30:18;;;;;;;17.88;11.95;;;10.70;79.90;;;;;;5004328;28;20138;-94
2024/03/05 08:32:44;;;;;;;17.15;11.25;;;10.80;79.90;;;;;;5038761;28;20036;-78
2024/03/05 08:35:13;;;;;;;19.80;12.60;;;10.80;79.90;;;;;;5009165;28;20030;-78
2024/03/05 08:37:45;;;;;;;18.77;12.13;;;10.80;79.90;;;;;;5007744;28;20084;-79
2024/03/05 08:40:13;;;;;;;17.55;11.68;;;10.80;79.90;;;;;;4998865;28;20026;-79
2024/03/05 08:42:43;;;;;;;16.77;11.80;;;10.80;79.90;;;;;;5000516;28;20034;-93
2024/03/05 08:45:15;;;;;;;19.65;12.52;;;10.80;79.90;;;;;;5019790;28;20026;-78
2024/03/05 08:47:46;;;;;;;19.02;12.20;;;10.90;79.90;;;;;;5029321;28;20056;-88
2024/03/05 08:50:12;;;;;;;20.90;12.90;;;10.90;80.00;;;;;;5020312;28;20042;-89
2024/03/05 08:52:39;;;;;;;19.55;12.52;;;10.80;79.90;;;;;;5051224;28;20076;-79
2024/03/05 08:55:08;;;;;;;18.58;12.38;;;10.90;79.90;;;;;;5023063;28;20045;-87
2024/03/05 08:57:37;;;;;;;20.45;13.18;;;10.90;79.90;;;;;;5010284;28;20030;-88
2024/03/05 09:00:07;;;;;;;20.73;13.35;;;10.90;79.90;;;;;;5017695;28;20030;-92
2024/03/05 09:02:34;;;;;;;21.70;13.57;;;10.90;79.90;;;;;;5035638;28;20535;-95
2024/03/05 09:05:02;;;;;;;21.98;13.38;;;10.90;79.90;;;;;;5017083;28;20050;-77
2024/03/05 09:07:46;;;;;;;18.40;12.77;;;10.90;79.90;;;;;;5052242;28;20116;-78
2024/03/05 09:10:14;;;;;;;21.98;13.80;;;10.90;79.90;;;;;;5056108;28;20131;-88
2024/03/05 09:12:41;;;;;;;21.88;13.77;;;10.90;79.90;;;;;;5057191;28;20055;-78
2024/03/05 09:15:08;;;;;;;22.45;13.20;;;10.90;79.90;;;;;;5072652;28;20119;-78
2024/03/05 09:17:34;;;;;;;20.48;14.00;;;11.00;79.90;;;;;;5031286;28;20099;-79
2024/03/05 09:20:24;;;;;;;23.98;13.68;;;11.00;79.90;;;;;;5070486;28;20036;-93
2024/03/05 09:22:49;;;;;;;23.05;14.35;;;11.00;79.90;;;;;;5055424;28;20385;-79
2024/03/05 09:25:16;;;;;;;22.25;13.85;;;11.00;79.80;;;;;;5068782;28;20056;-78
2024/03/05 09:27:44;;;;;;;23.38;14.02;;;11.10;79.90;;;;;;5055007;28;20037;-78
2024/03/05 09:30:18;;;;;;;21.08;13.80;;;11.10;79.90;;;;;;5072818;28;20028;-78
2024/03/05 09:32:44;;;;;;;22.42;13.88;;;11.10;79.80;;;;;;5061981;28;20391;-78
2024/03/05 09:35:15;;;;;;;24.80;14.45;;;11.10;79.80;;;;;;5072363;28;20090;-94
2024/03/05 09:37:47;;;;;;;23.40;14.80;;;11.20;79.90;;;;;;5031121;28;20556;-88
2024/03/05 09:40:19;;;;;;;23.65;14.43;;;11.10;79.80;;;;;;5008194;28;20036;-92
2024/03/05 09:42:45;;;;;;;24.48;14.57;;;11.10;79.80;;;;;;5016687;28;20073;-95
2024/03/05 09:45:17;;;;;;;23.67;15.10;;;11.10;79.80;;;;;;5030568;28;20030;-88
2024/03/05 09:47:43;;;;;;;25.08;15.18;;;11.20;79.90;;;;;;5026814;28;20129;-88
2024/03/05 09:50:14;;;;;;;22.33;14.30;;;11.20;79.90;;;;;;5022179;28;20061;-89
2024/03/05 09:52:39;;;;;;;22.75;13.80;;;11.20;79.90;;;;;;5011181;28;20125;-94
2024/03/05 09:55:06;;;;;;;23.58;15.10;;;11.20;79.80;;;;;;5016416;28;20081;-79
2024/03/05 09:57:34;;;;;;;22.70;14.43;;;11.20;79.80;;;;;;5012323;28;20034;-86
2024/03/05 10:00:00;;;;;;;24.50;14.80;;;11.20;79.80;;;;;;5015802;28;20022;-79
2024/03/05 10:02:27;;;;;;;25.35;14.60;;;11.20;79.70;;;;;;5027336;28;20041;-89
2024/03/05 10:04:58;;;;;;;22.98;14.13;;;11.30;79.80;;;;;;5010778;28;20022;-79
2024/03/05 10:07:28;;;;;;;22.48;14.77;;;11.30;79.70;;;;;;5027534;28;20030;-93
2024/03/05 10:10:14;;;;;;;20.88;13.60;;;11.30;79.70;;;;;;5033711;28;20038;-94
2024/03/05 10:12:41;;;;;;;21.73;13.45;;;11.30;79.70;;;;;;5012404;28;20030;-78
2024/03/05 10:15:25;;;;;;;22.65;13.85;;;11.40;79.80;;;;;;5015979;28;20035;-88
2024/03/05 10:17:53;;;;;;;24.13;14.68;;;11.40;79.70;;;;;;5027470;28;20758;-88
2024/03/05 10:20:33;;;;;;;24.08;15.48;;;11.30;79.60;;;;;;5009804;28;20021;-95
2024/03/05 10:23:01;;;;;;;25.10;15.82;;;11.40;79.70;;;;;;5004181;28;20033;-79
2024/03/05 10:25:32;;;;;;;23.50;14.68;;;11.40;79.70;;;;;;5014979;28;20077;-89
2024/03/05 10:27:59;;;;;;;23.83;15.55;;;11.50;79.70;;;;;;5009889;28;20485;-79
2024/03/05 10:30:35;;;;;;;24.23;14.57;;;11.50;79.70;;;;;;5026564;28;20022;-77
2024/03/05 10:33:04;;;;;;;23.35;14.23;;;11.50;79.70;;;;;;5020958;28;20034;-89
2024/03/05 10:35:31;;;;;;;23.33;15.52;;;11.50;79.70;;;;;;5043095;28;20079;-78
2024/03/05 10:38:10;;;;;;;24.08;15.48;;;11.50;79.70;;;;;;5044662;28;20025;-78
2024/03/05 10:40:36;;;;;;;22.52;15.10;;;11.50;79.70;;;;;;5025169;28;20217;-89
2024/03/05 10:43:09;;;;;;;22.42;15.07;;;11.50;79.70;;;;;;5046072;28;20529;-90
2024/03/05 10:45:39;;;;;;;23.23;15.25;;;11.60;79.70;;;;;;5002485;28;20017;-79
2024/03/05 10:48:09;;;;;;;22.50;14.02;;;11.60;79.70;;;;;;5018866;28;20034;-78
2024/03/05 10:50:39;;;;;;;21.75;14.52;;;11.60;79.60;;;;;;5025268;28;20025;-79
2024/03/05 10:53:09;;;;;;;23.27;15.00;;;11.60;79.60;;;;;;5003735;28;20022;-89
2024/03/05 10:55:37;;;;;;;22.75;14.70;;;11.60;79.60;;;;;;5040959;28;20042;-78
2024/03/05 11:00:39;;;;;;;;;;;11.70;79.60;;;;;;5012855;28;20083;-91
2024/03/05 11:03:10;;;;;;;19.23;13.43;;;11.60;79.50;;;;;;5030995;28;19913;-89
2024/03/05 11:05:49;;;;;;;20.13;13.63;;;11.70;79.50;;;;;;5003208;28;20026;-92
2024/03/05 11:08:20;;;;;;;23.40;14.35;;;11.70;79.50;;;;;;5001658;28;20037;-89
2024/03/05 11:10:52;;;;;;;21.63;14.30;;;11.70;79.50;;;;;;5006829;28;20022;-90
2024/03/05 11:13:21;;;;;;;22.10;14.18;;;11.80;79.50;;;;;;5028215;28;20039;-89
2024/03/05 11:15:49;;;;;;;22.17;14.85;;;11.80;79.50;;;;;;4999098;28;20124;-89
2024/03/05 11:18:34;;;;;;;21.65;14.13;;;11.80;79.50;;;;;;5043167;28;20061;-90
2024/03/05 11:21:08;;;;;;;21.67;14.70;;;11.80;79.50;;;;;;5036011;28;20401;-79
2024/03/05 11:23:38;;;;;;;21.20;14.53;;;11.90;79.50;;;;;;5002944;28;20060;-79
2024/03/05 11:26:06;;;;;;;19.17;13.75;;;11.90;79.50;;;;;;5047014;28;20112;-78
2024/03/05 11:28:33;;;;;;;21.08;14.38;;;11.90;79.50;;;;;;5018438;28;20049;-79
2024/03/05 11:31:18;;;;;;;21.48;14.13;;;11.90;79.40;;;;;;5046100;28;20025;-80
2024/03/05 11:33:57;;;;;;;19.52;13.80;;;11.90;79.40;;;;;;5048288;28;20041;-92
2024/03/05 11:36:23;;;;;;;18.95;13.65;;;11.90;79.30;;;;;;5038202;28;20018;-91
2024/03/05 11:39:00;;;;;;;19.45;13.85;;;11.90;79.30;;;;;;5026633;28;20127;-91
2024/03/05 11:41:26;;;;;;;23.02;14.55;;;12.00;79.30;;;;;;5026977;28;20034;-79
2024/03/05 11:43:53;;;;;;;19.13;13.75;;;12.00;79.20;;;;;;5007058;28;20026;-89
2024/03/05 11:46:43;;;;;;;20.02;13.60;;;12.00;79.20;;;;;;5024506;28;20041;-79
2024/03/05 11:49:09;;;;;;;18.40;13.55;;;12.00;79.20;;;;;;5019095;28;20073;-79
2024/03/05 11:51:35;;;;;;;19.77;13.25;;;12.00;79.20;;;;;;5027775;28;20045;-89
2024/03/05 11:54:04;;;;;;;20.40;13.38;;;12.00;79.10;;;;;;5026930;28;20085;-79
2024/03/05 11:56:30;;;;;;;19.05;13.70;;;12.00;79.10;;;;;;5046403;28;20504;-90
2024/03/05 11:58:55;;;;;;;19.05;13.27;;;12.00;79.10;;;;;;5023629;28;20030;-79
2024/03/05 12:01:23;;;;;;;19.60;13.98;;;12.00;79.10;;;;;;5015658;28;20118;-79
2024/03/05 12:04:08;;;;;;;19.40;13.75;;;12.00;79.10;;;;;;5021750;28;20445;-89
2024/03/05 12:06:43;;;;;;;18.03;12.90;;;12.10;79.20;;;;;;5028076;28;20420;-79
2024/03/05 12:09:21;;;;;;;17.98;12.27;;;12.10;79.20;;;;;;5048751;28;20018;-90
2024/03/05 12:12:04;;;;;;;17.88;12.88;;;12.00;79.10;;;;;;5012554;28;20033;-79
2024/03/05 12:14:32;;;;;;;18.00;12.63;;;12.10;79.20;;;;;;4999581;28;20149;-89
2024/03/05 12:17:08;;;;;;;18.17;12.30;;;12.00;79.20;;;;;;5009230;28;20057;-79
2024/03/05 12:19:37;;;;;;;19.58;13.65;;;12.00;79.20;;;;;;5047975;28;20033;-90
2024/03/05 12:22:06;;;;;;;17.92;12.90;;;12.10;79.20;;;;;;5019379;28;20121;-90
2024/03/05 12:24:33;;;;;;;17.70;12.85;;;12.10;79.20;;;;;;5038927;28;20034;-86
2024/03/05 12:26:59;;;;;;;17.63;12.32;;;12.10;79.20;;;;;;5012972;28;20018;-89
2024/03/05 12:29:45;;;;;;;17.65;12.93;;;12.10;79.20;;;;;;5004697;28;20113;-90
2024/03/05 12:32:18;;;;;;;17.52;12.32;;;12.10;79.20;;;;;;5011525;28;20049;-88
2024/03/05 12:34:44;;;;;;;17.15;12.57;;;12.10;79.20;;;;;;5001386;28;20114;-78
2024/03/05 12:37:11;;;;;;;18.30;13.40;;;12.10;79.20;;;;;;5024495;28;20045;-88
2024/03/05 12:39:38;;;;;;;17.52;12.85;;;12.10;79.20;;;;;;5019263;28;20022;-78
2024/03/05 12:42:07;;;;;;;16.48;12.40;;;12.10;79.20;;;;;;5020492;28;20030;-89